ARG1442 SABE-SANC
Flight info
| Callsign | ARG1442 |
|---|---|
| Flight time | N/A |
| Altitude | 28000 |
| Route | ATOVO4B ATOVO DCT ROS DCT CBA DCT CAT |
| Aircraft | B738/M-SDE2E3FGHIRWXY/LB1 |
Departure
| Time | 2026-05-06 15:50 |
|---|---|
| Airport | Aeroparque Jorge Newbery (SABE) |
Arrival
| Time | N/A |
|---|---|
| Airport | Coronel Felipe Varela International Airport (SANC) |
| Time | Latitude | Longitude | Altitude | Speed | Heading |
|---|---|---|---|---|---|
| 2026-05-06 15:24 | -34.55739 | -58.41365 | 26 ft | 0 kts | 33° |
| 2026-05-06 15:40 | -34.55745 | -58.41370 | 26 ft | 2 kts | 33° |
| 2026-05-06 15:40 | -34.55757 | -58.41380 | 26 ft | 2 kts | 33° |
| 2026-05-06 15:40 | -34.55765 | -58.41386 | 26 ft | 2 kts | 32° |
| 2026-05-06 15:41 | -34.55778 | -58.41389 | 26 ft | 1 kts | 333° |
| 2026-05-06 15:41 | -34.55785 | -58.41381 | 26 ft | 1 kts | 293° |
| 2026-05-06 15:41 | -34.55788 | -58.41374 | 26 ft | 0 kts | 303° |
| 2026-05-06 15:44 | -34.55785 | -58.41378 | 26 ft | 1 kts | 303° |
| 2026-05-06 15:44 | -34.55779 | -58.41389 | 26 ft | 1 kts | 303° |
| 2026-05-06 15:44 | -34.55773 | -58.41401 | 26 ft | 3 kts | 303° |
| 2026-05-06 15:44 | -34.55760 | -58.41425 | 26 ft | 3 kts | 302° |
| 2026-05-06 15:45 | -34.55748 | -58.41449 | 26 ft | 3 kts | 300° |
| 2026-05-06 15:45 | -34.55732 | -58.41482 | 26 ft | 5 kts | 299° |
| 2026-05-06 15:45 | -34.55721 | -58.41533 | 26 ft | 5 kts | 259° |
| 2026-05-06 15:45 | -34.55744 | -58.41568 | 26 ft | 5 kts | 214° |
| 2026-05-06 15:46 | -34.55778 | -58.41604 | 26 ft | 7 kts | 251° |
| 2026-05-06 15:46 | -34.55767 | -58.41670 | 26 ft | 9 kts | 295° |
| 2026-05-06 15:46 | -34.55736 | -58.41745 | 26 ft | 10 kts | 298° |
| 2026-05-06 15:46 | -34.55695 | -58.41822 | 26 ft | 10 kts | 303° |
| 2026-05-06 15:47 | -34.55657 | -58.41891 | 26 ft | 9 kts | 303° |
| 2026-05-06 15:47 | -34.55612 | -58.41972 | 26 ft | 14 kts | 304° |
| 2026-05-06 15:47 | -34.55545 | -58.42083 | 26 ft | 17 kts | 307° |
| 2026-05-06 15:47 | -34.55476 | -58.42195 | 26 ft | 16 kts | 306° |
| 2026-05-06 15:48 | -34.55411 | -58.42301 | 26 ft | 14 kts | 307° |
| 2026-05-06 15:48 | -34.55375 | -58.42359 | 26 ft | 3 kts | 301° |
| 2026-05-06 15:48 | -34.55366 | -58.42384 | 26 ft | 4 kts | 289° |
| 2026-05-06 15:48 | -34.55357 | -58.42429 | 26 ft | 6 kts | 279° |
| 2026-05-06 15:49 | -34.55365 | -58.42491 | 26 ft | 9 kts | 227° |
| 2026-05-06 15:49 | -34.55408 | -58.42493 | 26 ft | 6 kts | 143° |
| 2026-05-06 15:49 | -34.55432 | -58.42457 | 26 ft | 4 kts | 123° |
| 2026-05-06 15:49 | -34.55435 | -58.42452 | 26 ft | 0 kts | 123° |
| 2026-05-06 15:50 | -34.55576 | -58.42195 | 26 ft | 79 kts | 124° |
| 2026-05-06 15:50 | -34.56050 | -58.41350 | 27 ft | 157 kts | 123° |
| 2026-05-06 15:50 | -34.56692 | -58.40234 | 808 ft | 161 kts | 120° |
| 2026-05-06 15:51 | -34.57230 | -58.39039 | 1478 ft | 171 kts | 97° |
| 2026-05-06 15:51 | -34.57108 | -58.37676 | 2057 ft | 167 kts | 57° |
| 2026-05-06 15:51 | -34.56421 | -58.36500 | 2626 ft | 176 kts | 40° |
| 2026-05-06 15:51 | -34.55465 | -58.35539 | 3106 ft | 190 kts | 25° |
| 2026-05-06 15:52 | -34.54294 | -58.34810 | 3745 ft | 199 kts | 21° |
| 2026-05-06 15:52 | -34.53034 | -58.33956 | 4349 ft | 215 kts | 26° |
| 2026-05-06 15:52 | -34.51721 | -58.32951 | 4900 ft | 235 kts | 27° |
| 2026-05-06 15:52 | -34.50268 | -58.31832 | 5506 ft | 252 kts | 27° |
| 2026-05-06 15:53 | -34.48766 | -58.30708 | 6341 ft | 258 kts | 24° |
| 2026-05-06 15:53 | -34.47137 | -58.29891 | 7230 ft | 255 kts | 8° |
| 2026-05-06 15:53 | -34.45393 | -58.29889 | 8045 ft | 255 kts | 346° |
| 2026-05-06 15:53 | -34.43740 | -58.30608 | 8889 ft | 258 kts | 334° |
| 2026-05-06 15:54 | -34.42198 | -58.31718 | 9660 ft | 263 kts | 326° |
| 2026-05-06 15:54 | -34.40714 | -58.33020 | 10366 ft | 271 kts | 324° |
| 2026-05-06 15:54 | -34.39137 | -58.34415 | 10837 ft | 287 kts | 324° |
| 2026-05-06 15:54 | -34.37474 | -58.35827 | 11388 ft | 298 kts | 325° |
| 2026-05-06 15:55 | -34.35753 | -58.37249 | 12105 ft | 303 kts | 325° |
| 2026-05-06 15:55 | -34.34010 | -58.38676 | 12860 ft | 306 kts | 324° |
| 2026-05-06 15:55 | -34.32243 | -58.40122 | 13593 ft | 309 kts | 324° |
| 2026-05-06 15:55 | -34.30477 | -58.41568 | 14326 ft | 312 kts | 324° |
| 2026-05-06 15:56 | -34.28661 | -58.43056 | 15040 ft | 316 kts | 323° |
| 2026-05-06 15:56 | -34.26837 | -58.44553 | 15737 ft | 319 kts | 323° |
| 2026-05-06 15:56 | -34.25003 | -58.46056 | 16539 ft | 319 kts | 323° |
| 2026-05-06 15:56 | -34.23172 | -58.47558 | 17227 ft | 322 kts | 323° |
| 2026-05-06 15:57 | -34.21316 | -58.49083 | 17868 ft | 326 kts | 322° |
| 2026-05-06 15:57 | -34.19434 | -58.50631 | 18528 ft | 329 kts | 322° |
| 2026-05-06 15:57 | -34.17565 | -58.52164 | 19290 ft | 328 kts | 322° |
| 2026-05-06 15:57 | -34.15673 | -58.53718 | 19902 ft | 331 kts | 322° |
| 2026-05-06 15:58 | -34.13747 | -58.55298 | 20514 ft | 334 kts | 322° |
| 2026-05-06 15:58 | -34.11836 | -58.56888 | 21139 ft | 335 kts | 320° |
| 2026-05-06 15:58 | -34.10071 | -58.58671 | 21687 ft | 335 kts | 312° |
| 2026-05-06 15:58 | -34.08615 | -58.60856 | 22268 ft | 336 kts | 302° |
| 2026-05-06 15:59 | -34.07542 | -58.63348 | 22907 ft | 336 kts | 294° |
| 2026-05-06 15:59 | -34.06737 | -58.66014 | 23444 ft | 340 kts | 288° |
| 2026-05-06 15:59 | -34.06273 | -58.68807 | 23914 ft | 346 kts | 278° |
| 2026-05-06 15:59 | -34.06153 | -58.71692 | 24445 ft | 350 kts | 275° |
| 2026-05-06 16:00 | -34.06138 | -58.74657 | 24961 ft | 353 kts | 273° |
| 2026-05-06 16:00 | -34.06150 | -58.77593 | 25503 ft | 354 kts | 273° |
| 2026-05-06 16:00 | -34.06164 | -58.80571 | 25936 ft | 357 kts | 274° |
| 2026-05-06 16:00 | -34.06173 | -58.83541 | 26492 ft | 357 kts | 273° |
| 2026-05-06 16:01 | -34.06178 | -58.86556 | 26874 ft | 361 kts | 273° |
| 2026-05-06 16:01 | -34.06177 | -58.89581 | 27350 ft | 363 kts | 273° |
| 2026-05-06 16:01 | -34.06174 | -58.92607 | 27765 ft | 364 kts | 273° |
| 2026-05-06 16:01 | -34.06167 | -58.95684 | 27817 ft | 369 kts | 273° |
| 2026-05-06 16:02 | -34.06161 | -58.98750 | 27820 ft | 365 kts | 273° |
| 2026-05-06 16:02 | -34.06155 | -59.01774 | 27820 ft | 362 kts | 273° |
| 2026-05-06 16:02 | -34.06146 | -59.04794 | 27823 ft | 365 kts | 273° |
| 2026-05-06 16:02 | -34.06119 | -59.07879 | 27816 ft | 365 kts | 275° |
| 2026-05-06 16:03 | -34.05923 | -59.10891 | 27811 ft | 362 kts | 281° |
| 2026-05-06 16:03 | -34.05344 | -59.13814 | 27808 ft | 360 kts | 289° |
| 2026-05-06 16:03 | -34.04351 | -59.16605 | 27807 ft | 359 kts | 297° |
| 2026-05-06 16:03 | -34.03095 | -59.19186 | 27811 ft | 360 kts | 302° |
| 2026-05-06 16:04 | -34.01622 | -59.21626 | 27812 ft | 361 kts | 306° |
| 2026-05-06 16:04 | -34.00023 | -59.23967 | 27818 ft | 362 kts | 308° |
| 2026-05-06 16:04 | -33.98394 | -59.26270 | 27820 ft | 361 kts | 308° |
| 2026-05-06 16:04 | -33.96775 | -59.28551 | 27820 ft | 361 kts | 308° |
| 2026-05-06 16:05 | -33.95151 | -59.30852 | 27819 ft | 361 kts | 308° |
| 2026-05-06 16:05 | -33.93532 | -59.33157 | 27818 ft | 360 kts | 308° |
| 2026-05-06 16:05 | -33.91908 | -59.35477 | 27818 ft | 362 kts | 308° |
| 2026-05-06 16:05 | -33.90300 | -59.37777 | 27816 ft | 361 kts | 308° |
| 2026-05-06 16:06 | -33.88671 | -59.40109 | 27817 ft | 361 kts | 308° |
| 2026-05-06 16:06 | -33.87067 | -59.42404 | 27816 ft | 361 kts | 308° |
| 2026-05-06 16:06 | -33.85443 | -59.44729 | 27816 ft | 362 kts | 308° |
| 2026-05-06 16:06 | -33.83828 | -59.47037 | 27809 ft | 363 kts | 308° |
| 2026-05-06 16:07 | -33.82211 | -59.49349 | 27807 ft | 362 kts | 308° |
| 2026-05-06 16:07 | -33.80599 | -59.51651 | 27805 ft | 362 kts | 308° |
| 2026-05-06 16:07 | -33.78981 | -59.53961 | 27805 ft | 362 kts | 308° |
| 2026-05-06 16:07 | -33.77368 | -59.56264 | 27802 ft | 361 kts | 308° |
| 2026-05-06 16:08 | -33.75755 | -59.58563 | 27799 ft | 361 kts | 308° |
| 2026-05-06 16:08 | -33.74120 | -59.60892 | 27798 ft | 361 kts | 308° |
| 2026-05-06 16:08 | -33.72507 | -59.63189 | 27802 ft | 362 kts | 308° |
| 2026-05-06 16:08 | -33.70896 | -59.65483 | 27804 ft | 362 kts | 308° |
| 2026-05-06 16:09 | -33.69268 | -59.67799 | 27802 ft | 362 kts | 308° |
| 2026-05-06 16:09 | -33.67654 | -59.70095 | 27801 ft | 362 kts | 308° |
| 2026-05-06 16:09 | -33.66016 | -59.72420 | 27797 ft | 361 kts | 308° |
| 2026-05-06 16:09 | -33.64408 | -59.74702 | 27793 ft | 362 kts | 308° |
| 2026-05-06 16:10 | -33.62784 | -59.77008 | 27795 ft | 362 kts | 308° |
| 2026-05-06 16:10 | -33.61155 | -59.79321 | 27794 ft | 361 kts | 308° |
| 2026-05-06 16:10 | -33.59537 | -59.81616 | 27792 ft | 363 kts | 308° |
| 2026-05-06 16:10 | -33.57914 | -59.83913 | 27792 ft | 363 kts | 308° |
| 2026-05-06 16:11 | -33.56276 | -59.86230 | 27791 ft | 361 kts | 308° |
| 2026-05-06 16:11 | -33.54667 | -59.88504 | 27789 ft | 360 kts | 308° |
| 2026-05-06 16:11 | -33.53050 | -59.90791 | 27788 ft | 361 kts | 309° |
| 2026-05-06 16:11 | -33.51426 | -59.93086 | 27788 ft | 363 kts | 308° |
| 2026-05-06 16:12 | -33.49783 | -59.95405 | 27786 ft | 361 kts | 308° |
| 2026-05-06 16:12 | -33.48168 | -59.97684 | 27783 ft | 359 kts | 308° |
| 2026-05-06 16:12 | -33.46556 | -59.99958 | 27782 ft | 360 kts | 308° |
| 2026-05-06 16:12 | -33.44937 | -60.02239 | 27780 ft | 361 kts | 309° |
| 2026-05-06 16:13 | -33.43320 | -60.04512 | 27777 ft | 360 kts | 309° |
| 2026-05-06 16:13 | -33.41683 | -60.06812 | 27777 ft | 360 kts | 308° |
| 2026-05-06 16:13 | -33.40069 | -60.09082 | 27776 ft | 361 kts | 309° |
| 2026-05-06 16:13 | -33.38436 | -60.11379 | 27779 ft | 361 kts | 309° |
| 2026-05-06 16:14 | -33.36812 | -60.13660 | 27777 ft | 361 kts | 309° |
| 2026-05-06 16:14 | -33.35189 | -60.15939 | 27778 ft | 362 kts | 309° |
| 2026-05-06 16:14 | -33.33557 | -60.18228 | 27778 ft | 360 kts | 309° |
| 2026-05-06 16:14 | -33.31938 | -60.20496 | 27776 ft | 360 kts | 308° |
| 2026-05-06 16:15 | -33.30306 | -60.22784 | 27774 ft | 362 kts | 308° |
| 2026-05-06 16:15 | -33.28672 | -60.25071 | 27773 ft | 361 kts | 309° |
| 2026-05-06 16:15 | -33.27056 | -60.27335 | 27774 ft | 361 kts | 308° |
| 2026-05-06 16:15 | -33.25441 | -60.29596 | 27776 ft | 360 kts | 308° |
| 2026-05-06 16:16 | -33.23793 | -60.31897 | 27778 ft | 361 kts | 309° |
| 2026-05-06 16:16 | -33.22174 | -60.34154 | 27777 ft | 360 kts | 308° |
| 2026-05-06 16:16 | -33.20552 | -60.36418 | 27776 ft | 361 kts | 309° |
| 2026-05-06 16:16 | -33.18924 | -60.38690 | 27778 ft | 361 kts | 309° |
| 2026-05-06 16:17 | -33.17297 | -60.40959 | 27778 ft | 361 kts | 309° |
| 2026-05-06 16:17 | -33.15648 | -60.43258 | 27774 ft | 362 kts | 309° |
| 2026-05-06 16:17 | -33.14031 | -60.45510 | 27774 ft | 361 kts | 308° |
| 2026-05-06 16:17 | -33.12392 | -60.47790 | 27776 ft | 362 kts | 309° |
| 2026-05-06 16:18 | -33.10744 | -60.50079 | 27774 ft | 361 kts | 308° |
| 2026-05-06 16:18 | -33.09122 | -60.52334 | 27773 ft | 362 kts | 309° |
| 2026-05-06 16:18 | -33.07472 | -60.54623 | 27775 ft | 361 kts | 309° |
| 2026-05-06 16:18 | -33.05848 | -60.56877 | 27775 ft | 362 kts | 309° |
| 2026-05-06 16:19 | -33.04211 | -60.59146 | 27772 ft | 360 kts | 309° |
| 2026-05-06 16:19 | -33.02587 | -60.61396 | 27771 ft | 361 kts | 309° |
| 2026-05-06 16:19 | -33.00944 | -60.63673 | 27769 ft | 360 kts | 308° |
| 2026-05-06 16:19 | -32.99310 | -60.65939 | 27772 ft | 362 kts | 309° |
| 2026-05-06 16:20 | -32.97671 | -60.68208 | 27773 ft | 360 kts | 309° |
| 2026-05-06 16:20 | -32.96042 | -60.70463 | 27776 ft | 361 kts | 309° |
| 2026-05-06 16:20 | -32.94410 | -60.72719 | 27771 ft | 361 kts | 309° |
| 2026-05-06 16:20 | -32.92759 | -60.74997 | 27773 ft | 360 kts | 309° |
| 2026-05-06 16:21 | -32.91188 | -60.77291 | 27772 ft | 360 kts | 306° |
| 2026-05-06 16:21 | -32.89801 | -60.79736 | 27770 ft | 359 kts | 301° |
| 2026-05-06 16:21 | -32.88552 | -60.82313 | 27770 ft | 359 kts | 298° |
| 2026-05-06 16:21 | -32.87368 | -60.84942 | 27770 ft | 361 kts | 298° |
| 2026-05-06 16:22 | -32.86218 | -60.87574 | 27765 ft | 359 kts | 297° |
| 2026-05-06 16:22 | -32.85063 | -60.90230 | 27767 ft | 359 kts | 297° |
| 2026-05-06 16:22 | -32.83918 | -60.92850 | 27761 ft | 360 kts | 297° |
| 2026-05-06 16:22 | -32.82763 | -60.95467 | 27758 ft | 359 kts | 297° |
| 2026-05-06 16:23 | -32.81598 | -60.98100 | 27756 ft | 359 kts | 297° |
| 2026-05-06 16:23 | -32.80433 | -61.00717 | 27758 ft | 361 kts | 297° |
| 2026-05-06 16:23 | -32.79251 | -61.03370 | 27755 ft | 360 kts | 298° |
| 2026-05-06 16:23 | -32.78093 | -61.05965 | 27750 ft | 358 kts | 298° |
| 2026-05-06 16:24 | -32.76928 | -61.08572 | 27750 ft | 358 kts | 297° |
| 2026-05-06 16:24 | -32.75763 | -61.11175 | 27747 ft | 359 kts | 297° |
| 2026-05-06 16:24 | -32.74578 | -61.13817 | 27745 ft | 359 kts | 297° |
| 2026-05-06 16:24 | -32.73414 | -61.16412 | 27743 ft | 358 kts | 297° |
| 2026-05-06 16:25 | -32.72246 | -61.19014 | 27742 ft | 358 kts | 298° |
| 2026-05-06 16:25 | -32.71079 | -61.21613 | 27738 ft | 358 kts | 298° |
| 2026-05-06 16:25 | -32.69900 | -61.24237 | 27736 ft | 358 kts | 298° |
| 2026-05-06 16:25 | -32.68743 | -61.26811 | 27741 ft | 358 kts | 298° |
| 2026-05-06 16:26 | -32.67569 | -61.29420 | 27741 ft | 359 kts | 297° |
| 2026-05-06 16:26 | -32.66388 | -61.32045 | 27739 ft | 358 kts | 297° |
| 2026-05-06 16:26 | -32.65218 | -61.34639 | 27739 ft | 357 kts | 297° |
| 2026-05-06 16:26 | -32.64052 | -61.37228 | 27741 ft | 358 kts | 297° |
| 2026-05-06 16:27 | -32.62879 | -61.39831 | 27741 ft | 358 kts | 297° |
| 2026-05-06 16:27 | -32.61706 | -61.42432 | 27742 ft | 358 kts | 298° |
| 2026-05-06 16:27 | -32.60523 | -61.45049 | 27744 ft | 360 kts | 298° |
| 2026-05-06 16:27 | -32.59358 | -61.47624 | 27744 ft | 359 kts | 298° |
| 2026-05-06 16:28 | -32.58166 | -61.50258 | 27743 ft | 358 kts | 298° |
| 2026-05-06 16:28 | -32.57006 | -61.52822 | 27744 ft | 359 kts | 297° |
| 2026-05-06 16:28 | -32.55825 | -61.55429 | 27748 ft | 361 kts | 298° |
| 2026-05-06 16:28 | -32.54642 | -61.58037 | 27744 ft | 357 kts | 298° |
| 2026-05-06 16:29 | -32.53466 | -61.60630 | 27742 ft | 359 kts | 298° |
| 2026-05-06 16:29 | -32.52276 | -61.63248 | 27738 ft | 358 kts | 298° |
| 2026-05-06 16:29 | -32.51110 | -61.65815 | 27739 ft | 358 kts | 298° |
| 2026-05-06 16:29 | -32.49930 | -61.68406 | 27740 ft | 359 kts | 298° |
| 2026-05-06 16:30 | -32.48743 | -61.71014 | 27739 ft | 359 kts | 298° |
| 2026-05-06 16:30 | -32.47962 | -61.72730 | 27739 ft | 359 kts | 298° |
| 2026-05-06 16:30 | -32.46376 | -61.76209 | 27738 ft | 358 kts | 298° |
| 2026-05-06 16:30 | -32.45197 | -61.78796 | 27740 ft | 358 kts | 298° |
| 2026-05-06 16:31 | -32.44020 | -61.81376 | 27737 ft | 358 kts | 298° |
| 2026-05-06 16:31 | -32.42841 | -61.83959 | 27737 ft | 357 kts | 298° |
| 2026-05-06 16:31 | -32.41661 | -61.86543 | 27737 ft | 358 kts | 298° |
| 2026-05-06 16:31 | -32.40469 | -61.89148 | 27736 ft | 358 kts | 298° |
| 2026-05-06 16:32 | -32.39291 | -61.91722 | 27736 ft | 358 kts | 298° |
| 2026-05-06 16:32 | -32.38119 | -61.94281 | 27734 ft | 357 kts | 298° |
| 2026-05-06 16:32 | -32.36927 | -61.96879 | 27734 ft | 357 kts | 298° |
| 2026-05-06 16:32 | -32.35743 | -61.99457 | 27735 ft | 357 kts | 298° |
| 2026-05-06 16:33 | -32.34559 | -62.02037 | 27737 ft | 357 kts | 298° |
| 2026-05-06 16:33 | -32.33379 | -62.04611 | 27739 ft | 357 kts | 298° |
| 2026-05-06 16:33 | -32.32195 | -62.07189 | 27743 ft | 358 kts | 298° |
| 2026-05-06 16:34 | -32.29833 | -62.12322 | 27731 ft | 357 kts | 298° |
| 2026-05-06 16:34 | -32.28646 | -62.14904 | 27729 ft | 358 kts | 298° |
| 2026-05-06 16:34 | -32.27451 | -62.17494 | 27724 ft | 358 kts | 298° |
| 2026-05-06 16:34 | -32.26264 | -62.20065 | 27725 ft | 358 kts | 298° |
| 2026-05-06 16:35 | -32.25085 | -62.22620 | 27724 ft | 358 kts | 298° |
| 2026-05-06 16:35 | -32.23887 | -62.25213 | 27724 ft | 358 kts | 298° |
| 2026-05-06 16:35 | -32.22709 | -62.27764 | 27723 ft | 357 kts | 298° |
| 2026-05-06 16:35 | -32.21519 | -62.30347 | 27724 ft | 356 kts | 298° |
| 2026-05-06 16:36 | -32.20340 | -62.32901 | 27723 ft | 357 kts | 298° |
| 2026-05-06 16:36 | -32.19156 | -62.35456 | 27724 ft | 357 kts | 298° |
| 2026-05-06 16:36 | -32.17956 | -62.38041 | 27724 ft | 357 kts | 298° |
| 2026-05-06 16:36 | -32.16767 | -62.40606 | 27727 ft | 355 kts | 298° |
| 2026-05-06 16:37 | -32.15579 | -62.43163 | 27723 ft | 354 kts | 298° |
| 2026-05-06 16:37 | -32.14412 | -62.45672 | 27723 ft | 355 kts | 298° |
| 2026-05-06 16:37 | -32.13224 | -62.48223 | 27725 ft | 357 kts | 298° |
| 2026-05-06 16:37 | -32.12022 | -62.50811 | 27722 ft | 356 kts | 298° |
| 2026-05-06 16:38 | -32.10835 | -62.53366 | 27722 ft | 355 kts | 298° |
| 2026-05-06 16:38 | -32.09645 | -62.55920 | 27723 ft | 356 kts | 298° |
| 2026-05-06 16:38 | -32.08468 | -62.58440 | 27722 ft | 354 kts | 298° |
| 2026-05-06 16:38 | -32.07272 | -62.61004 | 27722 ft | 353 kts | 298° |
| 2026-05-06 16:39 | -32.06103 | -62.63506 | 27724 ft | 354 kts | 298° |
| 2026-05-06 16:39 | -32.04902 | -62.66076 | 27721 ft | 355 kts | 298° |
| 2026-05-06 16:39 | -32.03723 | -62.68597 | 27721 ft | 353 kts | 298° |
| 2026-05-06 16:39 | -32.02535 | -62.71135 | 27721 ft | 353 kts | 298° |
| 2026-05-06 16:40 | -32.01354 | -62.73658 | 27722 ft | 353 kts | 298° |
| 2026-05-06 16:40 | -32.00161 | -62.76208 | 27720 ft | 356 kts | 299° |
| 2026-05-06 16:40 | -31.98966 | -62.78756 | 27725 ft | 355 kts | 298° |
| 2026-05-06 16:40 | -31.97786 | -62.81276 | 27724 ft | 355 kts | 298° |
| 2026-05-06 16:41 | -31.96591 | -62.83822 | 27723 ft | 355 kts | 298° |
| 2026-05-06 16:41 | -31.95392 | -62.86372 | 27724 ft | 353 kts | 298° |
| 2026-05-06 16:41 | -31.94207 | -62.88892 | 27723 ft | 354 kts | 298° |
| 2026-05-06 16:41 | -31.93008 | -62.91443 | 27724 ft | 354 kts | 298° |
| 2026-05-06 16:42 | -31.91832 | -62.93943 | 27722 ft | 354 kts | 298° |
| 2026-05-06 16:42 | -31.90640 | -62.96475 | 27725 ft | 353 kts | 298° |
| 2026-05-06 16:42 | -31.89446 | -62.99010 | 27726 ft | 354 kts | 298° |
| 2026-05-06 16:42 | -31.88261 | -63.01525 | 27724 ft | 353 kts | 298° |
| 2026-05-06 16:43 | -31.87064 | -63.04061 | 27723 ft | 353 kts | 298° |
| 2026-05-06 16:43 | -31.85868 | -63.06595 | 27724 ft | 355 kts | 298° |
| 2026-05-06 16:43 | -31.84684 | -63.09101 | 27721 ft | 353 kts | 298° |
| 2026-05-06 16:43 | -31.83491 | -63.11624 | 27721 ft | 352 kts | 298° |
| 2026-05-06 16:44 | -31.82298 | -63.14144 | 27723 ft | 352 kts | 299° |
| 2026-05-06 16:44 | -31.81117 | -63.16640 | 27720 ft | 351 kts | 298° |
| 2026-05-06 16:44 | -31.79929 | -63.19147 | 27722 ft | 350 kts | 298° |
| 2026-05-06 16:44 | -31.78751 | -63.21632 | 27725 ft | 351 kts | 298° |
| 2026-05-06 16:45 | -31.77555 | -63.24156 | 27725 ft | 353 kts | 298° |
| 2026-05-06 16:45 | -31.76370 | -63.26654 | 27727 ft | 351 kts | 298° |
| 2026-05-06 16:45 | -31.75175 | -63.29171 | 27726 ft | 353 kts | 298° |
| 2026-05-06 16:45 | -31.73983 | -63.31683 | 27724 ft | 352 kts | 298° |
| 2026-05-06 16:46 | -31.72789 | -63.34192 | 27726 ft | 351 kts | 298° |
| 2026-05-06 16:46 | -31.71608 | -63.36669 | 27725 ft | 351 kts | 298° |
| 2026-05-06 16:46 | -31.70402 | -63.39196 | 27726 ft | 353 kts | 298° |
| 2026-05-06 16:46 | -31.69210 | -63.41694 | 27725 ft | 352 kts | 298° |
| 2026-05-06 16:47 | -31.68023 | -63.44178 | 27719 ft | 349 kts | 298° |
| 2026-05-06 16:47 | -31.66837 | -63.46661 | 27720 ft | 350 kts | 299° |
| 2026-05-06 16:47 | -31.65652 | -63.49145 | 27718 ft | 351 kts | 298° |
| 2026-05-06 16:47 | -31.64458 | -63.51645 | 27721 ft | 353 kts | 298° |
| 2026-05-06 16:48 | -31.63246 | -63.54178 | 27722 ft | 352 kts | 298° |
| 2026-05-06 16:48 | -31.62064 | -63.56650 | 27720 ft | 351 kts | 298° |
| 2026-05-06 16:48 | -31.60869 | -63.59150 | 27721 ft | 351 kts | 298° |
| 2026-05-06 16:48 | -31.59670 | -63.61652 | 27723 ft | 351 kts | 298° |
| 2026-05-06 16:49 | -31.58467 | -63.64162 | 27723 ft | 352 kts | 298° |
| 2026-05-06 16:49 | -31.57269 | -63.66658 | 27726 ft | 351 kts | 299° |
| 2026-05-06 16:49 | -31.56077 | -63.69140 | 27724 ft | 350 kts | 299° |
| 2026-05-06 16:49 | -31.54881 | -63.71629 | 27727 ft | 351 kts | 299° |
| 2026-05-06 16:50 | -31.53696 | -63.74092 | 27728 ft | 350 kts | 299° |
| 2026-05-06 16:50 | -31.52493 | -63.76590 | 27728 ft | 349 kts | 299° |
| 2026-05-06 16:50 | -31.51300 | -63.79066 | 27732 ft | 350 kts | 299° |
| 2026-05-06 16:50 | -31.50113 | -63.81530 | 27731 ft | 349 kts | 299° |
| 2026-05-06 16:51 | -31.48918 | -63.84010 | 27731 ft | 349 kts | 299° |
| 2026-05-06 16:51 | -31.47739 | -63.86459 | 27732 ft | 350 kts | 299° |
| 2026-05-06 16:51 | -31.46535 | -63.88957 | 27736 ft | 349 kts | 299° |
| 2026-05-06 16:51 | -31.45346 | -63.91417 | 27736 ft | 349 kts | 299° |
| 2026-05-06 16:52 | -31.44147 | -63.93898 | 27735 ft | 349 kts | 299° |
| 2026-05-06 16:52 | -31.42948 | -63.96376 | 27737 ft | 351 kts | 299° |
| 2026-05-06 16:52 | -31.41762 | -63.98829 | 27737 ft | 349 kts | 299° |
| 2026-05-06 16:52 | -31.40570 | -64.01292 | 27741 ft | 348 kts | 299° |
| 2026-05-06 16:53 | -31.39367 | -64.03777 | 27743 ft | 348 kts | 299° |
| 2026-05-06 16:53 | -31.38184 | -64.06212 | 27745 ft | 348 kts | 299° |
| 2026-05-06 16:53 | -31.36979 | -64.08691 | 27749 ft | 349 kts | 299° |
| 2026-05-06 16:53 | -31.35786 | -64.11148 | 27749 ft | 348 kts | 298° |
| 2026-05-06 16:54 | -31.34606 | -64.13580 | 27757 ft | 348 kts | 299° |
| 2026-05-06 16:54 | -31.33393 | -64.16046 | 27761 ft | 346 kts | 300° |
| 2026-05-06 16:54 | -31.32056 | -64.18400 | 27765 ft | 348 kts | 306° |
| 2026-05-06 16:54 | -31.30380 | -64.20434 | 27768 ft | 351 kts | 316° |
| 2026-05-06 16:55 | -31.28359 | -64.22070 | 27768 ft | 357 kts | 324° |
| 2026-05-06 16:55 | -31.26172 | -64.23448 | 27770 ft | 360 kts | 327° |
| 2026-05-06 16:55 | -31.23921 | -64.24747 | 27775 ft | 359 kts | 328° |
| 2026-05-06 16:55 | -31.21686 | -64.26020 | 27776 ft | 358 kts | 328° |
| 2026-05-06 16:56 | -31.19436 | -64.27308 | 27778 ft | 359 kts | 328° |
| 2026-05-06 16:56 | -31.17207 | -64.28589 | 27782 ft | 358 kts | 327° |
| 2026-05-06 16:56 | -31.14975 | -64.29880 | 27784 ft | 360 kts | 328° |
| 2026-05-06 16:56 | -31.12744 | -64.31170 | 27788 ft | 359 kts | 328° |
| 2026-05-06 16:57 | -31.10489 | -64.32477 | 27794 ft | 359 kts | 328° |
| 2026-05-06 16:57 | -31.08260 | -64.33765 | 27801 ft | 358 kts | 327° |
| 2026-05-06 16:57 | -31.06011 | -64.35068 | 27803 ft | 359 kts | 328° |
| 2026-05-06 16:57 | -31.03779 | -64.36363 | 27810 ft | 359 kts | 328° |
| 2026-05-06 16:58 | -31.01565 | -64.37646 | 27817 ft | 357 kts | 328° |
| 2026-05-06 16:58 | -30.99320 | -64.38947 | 27831 ft | 359 kts | 327° |
| 2026-05-06 16:58 | -30.97073 | -64.40246 | 27833 ft | 358 kts | 328° |
| 2026-05-06 16:58 | -30.94873 | -64.41517 | 27834 ft | 359 kts | 328° |
| 2026-05-06 16:59 | -30.92635 | -64.42811 | 27839 ft | 359 kts | 328° |
| 2026-05-06 16:59 | -30.90381 | -64.44113 | 27847 ft | 359 kts | 327° |
| 2026-05-06 16:59 | -30.88123 | -64.45418 | 27854 ft | 360 kts | 328° |
| 2026-05-06 16:59 | -30.85884 | -64.46709 | 27858 ft | 358 kts | 327° |
| 2026-05-06 17:00 | -30.83661 | -64.47991 | 27864 ft | 358 kts | 328° |
| 2026-05-06 17:00 | -30.81432 | -64.49275 | 27869 ft | 358 kts | 328° |
| 2026-05-06 17:00 | -30.79181 | -64.50573 | 27873 ft | 358 kts | 328° |
| 2026-05-06 17:00 | -30.76964 | -64.51850 | 27871 ft | 357 kts | 327° |
| 2026-05-06 17:01 | -30.74723 | -64.53140 | 27871 ft | 358 kts | 327° |
| 2026-05-06 17:01 | -30.72500 | -64.54420 | 27863 ft | 359 kts | 327° |
| 2026-05-06 17:01 | -30.70275 | -64.55696 | 27848 ft | 356 kts | 327° |
| 2026-05-06 17:01 | -30.68073 | -64.56960 | 27841 ft | 356 kts | 327° |
| 2026-05-06 17:02 | -30.65842 | -64.58245 | 27833 ft | 357 kts | 327° |
| 2026-05-06 17:02 | -30.63599 | -64.59534 | 27828 ft | 358 kts | 327° |
| 2026-05-06 17:02 | -30.61368 | -64.60816 | 27820 ft | 358 kts | 327° |
| 2026-05-06 17:02 | -30.59130 | -64.62099 | 27816 ft | 357 kts | 327° |
| 2026-05-06 17:03 | -30.56927 | -64.63361 | 27808 ft | 355 kts | 327° |
| 2026-05-06 17:03 | -30.54697 | -64.64640 | 27798 ft | 357 kts | 327° |
| 2026-05-06 17:03 | -30.52443 | -64.65932 | 27791 ft | 359 kts | 328° |
| 2026-05-06 17:03 | -30.50216 | -64.67207 | 27783 ft | 358 kts | 328° |
| 2026-05-06 17:04 | -30.47992 | -64.68478 | 27776 ft | 356 kts | 328° |
| 2026-05-06 17:04 | -30.45759 | -64.69755 | 27768 ft | 358 kts | 328° |
| 2026-05-06 17:04 | -30.43537 | -64.71024 | 27766 ft | 356 kts | 328° |
| 2026-05-06 17:04 | -30.41302 | -64.72302 | 27761 ft | 357 kts | 328° |
| 2026-05-06 17:05 | -30.39057 | -64.73586 | 27756 ft | 357 kts | 328° |
| 2026-05-06 17:05 | -30.36854 | -64.74842 | 27750 ft | 356 kts | 328° |
| 2026-05-06 17:05 | -30.34637 | -64.76105 | 27747 ft | 357 kts | 328° |
| 2026-05-06 17:05 | -30.32394 | -64.77383 | 27741 ft | 357 kts | 327° |
| 2026-05-06 17:06 | -30.30181 | -64.78644 | 27735 ft | 356 kts | 328° |
| 2026-05-06 17:06 | -30.27935 | -64.79922 | 27729 ft | 356 kts | 328° |
| 2026-05-06 17:06 | -30.25700 | -64.81194 | 27725 ft | 359 kts | 328° |
| 2026-05-06 17:06 | -30.23457 | -64.82471 | 27722 ft | 358 kts | 328° |
| 2026-05-06 17:07 | -30.21253 | -64.83723 | 27720 ft | 354 kts | 328° |
| 2026-05-06 17:07 | -30.19020 | -64.84993 | 27724 ft | 357 kts | 328° |
| 2026-05-06 17:07 | -30.16814 | -64.86248 | 27722 ft | 358 kts | 328° |
| 2026-05-06 17:07 | -30.14569 | -64.87524 | 27720 ft | 358 kts | 328° |
| 2026-05-06 17:08 | -30.12331 | -64.88792 | 27717 ft | 357 kts | 328° |
| 2026-05-06 17:08 | -30.10086 | -64.90065 | 27716 ft | 357 kts | 328° |
| 2026-05-06 17:08 | -30.07863 | -64.91322 | 27713 ft | 356 kts | 328° |
| 2026-05-06 17:08 | -30.05653 | -64.92573 | 27705 ft | 356 kts | 328° |
| 2026-05-06 17:09 | -30.03421 | -64.93839 | 27705 ft | 357 kts | 328° |
| 2026-05-06 17:09 | -30.01194 | -64.95100 | 27706 ft | 356 kts | 328° |
| 2026-05-06 17:09 | -29.98967 | -64.96359 | 27705 ft | 356 kts | 328° |
| 2026-05-06 17:09 | -29.96750 | -64.97613 | 27707 ft | 357 kts | 328° |
| 2026-05-06 17:10 | -29.94517 | -64.98875 | 27703 ft | 355 kts | 328° |
| 2026-05-06 17:10 | -29.92286 | -65.00136 | 27707 ft | 356 kts | 328° |
| 2026-05-06 17:10 | -29.90066 | -65.01388 | 27699 ft | 355 kts | 328° |
| 2026-05-06 17:10 | -29.87830 | -65.02653 | 27697 ft | 359 kts | 328° |
| 2026-05-06 17:11 | -29.85569 | -65.03934 | 27688 ft | 359 kts | 328° |
| 2026-05-06 17:11 | -29.83350 | -65.05185 | 27689 ft | 355 kts | 328° |
| 2026-05-06 17:11 | -29.81119 | -65.06437 | 27688 ft | 355 kts | 328° |
| 2026-05-06 17:11 | -29.78903 | -65.07685 | 27688 ft | 358 kts | 328° |
| 2026-05-06 17:12 | -29.76644 | -65.08958 | 27693 ft | 359 kts | 328° |
| 2026-05-06 17:12 | -29.74414 | -65.10213 | 27694 ft | 355 kts | 327° |
| 2026-05-06 17:12 | -29.72206 | -65.11453 | 27696 ft | 357 kts | 328° |
| 2026-05-06 17:12 | -29.69952 | -65.12721 | 27691 ft | 359 kts | 327° |
| 2026-05-06 17:13 | -29.67723 | -65.13972 | 27689 ft | 355 kts | 328° |
| 2026-05-06 17:13 | -29.65512 | -65.15211 | 27692 ft | 356 kts | 327° |
| 2026-05-06 17:13 | -29.63282 | -65.16462 | 27690 ft | 356 kts | 327° |
| 2026-05-06 17:13 | -29.61038 | -65.17722 | 27688 ft | 357 kts | 328° |
| 2026-05-06 17:14 | -29.58812 | -65.18971 | 27688 ft | 356 kts | 327° |
| 2026-05-06 17:14 | -29.56571 | -65.20228 | 27686 ft | 358 kts | 327° |
| 2026-05-06 17:14 | -29.54332 | -65.21481 | 27688 ft | 357 kts | 328° |
| 2026-05-06 17:14 | -29.52096 | -65.22732 | 27683 ft | 358 kts | 327° |
| 2026-05-06 17:15 | -29.49884 | -65.23972 | 27686 ft | 356 kts | 328° |
| 2026-05-06 17:15 | -29.47649 | -65.25222 | 27688 ft | 356 kts | 327° |
| 2026-05-06 17:15 | -29.45413 | -65.26471 | 27692 ft | 356 kts | 327° |
| 2026-05-06 17:15 | -29.43188 | -65.27715 | 27695 ft | 358 kts | 327° |
| 2026-05-06 17:16 | -29.40933 | -65.28973 | 27699 ft | 356 kts | 327° |
| 2026-05-06 17:16 | -29.38730 | -65.30200 | 27703 ft | 357 kts | 327° |
| 2026-05-06 17:16 | -29.36491 | -65.31447 | 27706 ft | 355 kts | 328° |
| 2026-05-06 17:16 | -29.34262 | -65.32687 | 27705 ft | 353 kts | 327° |
| 2026-05-06 17:17 | -29.32049 | -65.33923 | 27707 ft | 357 kts | 327° |
| 2026-05-06 17:17 | -29.29797 | -65.35184 | 27712 ft | 359 kts | 327° |
| 2026-05-06 17:17 | -29.27572 | -65.36423 | 27713 ft | 354 kts | 328° |
| 2026-05-06 17:17 | -29.25360 | -65.37653 | 27716 ft | 355 kts | 327° |
| 2026-05-06 17:18 | -29.23114 | -65.38905 | 27713 ft | 357 kts | 328° |